createdAt,value
2023-01-13T00:01:16.410Z,99550.84
2023-01-13T00:03:44.574Z,99545.19
2023-01-13T00:06:14.664Z,99542.50
2023-01-13T00:08:42.720Z,99552.03
2023-01-13T00:11:10.831Z,99546.59
2023-01-13T00:13:39.838Z,99553.13
2023-01-13T00:16:09.616Z,99537.28
2023-01-13T00:18:39.027Z,99531.28
2023-01-13T00:21:08.881Z,99532.28
2023-01-13T00:23:36.967Z,99533.16
2023-01-13T00:26:06.847Z,99533.31
2023-01-13T00:28:34.906Z,99539.34
2023-01-13T00:31:06.836Z,99537.44
2023-01-13T00:33:34.930Z,99548.88
2023-01-13T00:36:05.858Z,99544.09
2023-01-13T00:38:34.878Z,99546.94
2023-01-13T00:41:05.374Z,99542.41
2023-01-13T00:43:33.894Z,99544.34
2023-01-13T00:46:01.964Z,99548.53
2023-01-13T00:48:30.256Z,99548.69
2023-01-13T00:50:59.763Z,99546.00
2023-01-13T00:53:29.643Z,99555.00
2023-01-13T00:56:01.301Z,99564.47
2023-01-13T00:58:29.365Z,99544.56
2023-01-13T01:01:01.184Z,99549.56
2023-01-13T01:03:29.397Z,99555.63
2023-01-13T01:05:57.608Z,99550.47
2023-01-13T01:08:25.754Z,99548.97
2023-01-13T01:11:03.572Z,99555.72
2023-01-13T01:13:31.555Z,99554.63
2023-01-13T01:15:59.875Z,99559.81
2023-01-13T01:18:27.881Z,99558.69
2023-01-13T01:20:55.825Z,99556.88
2023-01-13T01:23:23.707Z,99555.72
2023-01-13T01:25:51.611Z,99550.34
2023-01-13T01:28:21.183Z,99556.31
2023-01-13T01:30:49.188Z,99560.53
2023-01-13T01:33:17.162Z,99556.09
2023-01-13T01:35:45.117Z,99548.84
2023-01-13T01:38:13.000Z,99548.91
2023-01-13T01:40:40.971Z,99552.22
2023-01-13T01:43:33.112Z,99537.63
2023-01-13T01:46:02.992Z,99535.09
2023-01-13T01:48:37.321Z,99531.59
2023-01-13T01:51:05.681Z,99534.03
2023-01-13T01:53:34.044Z,99532.28
2023-01-13T01:56:01.981Z,99542.56
2023-01-13T01:58:32.478Z,99525.88
2023-01-13T02:01:02.060Z,99525.31
2023-01-13T02:03:30.991Z,99541.56
2023-01-13T02:05:58.993Z,99533.88
2023-01-13T02:08:26.990Z,99534.69
2023-01-13T02:10:55.209Z,99537.44
2023-01-13T02:13:34.442Z,99530.69
2023-01-13T02:16:10.008Z,99554.91
2023-01-13T02:18:47.267Z,99552.09
2023-01-13T02:21:29.553Z,99541.06
2023-01-13T02:24:43.104Z,99548.31
2023-01-13T02:27:30.951Z,99582.50
2023-01-13T02:30:28.239Z,99592.28
2023-01-13T02:33:04.647Z,99578.59
2023-01-13T02:35:39.095Z,99564.47
2023-01-13T02:38:07.382Z,99567.75
2023-01-13T02:40:38.100Z,99582.81
2023-01-13T02:43:29.229Z,99563.28
2023-01-13T02:46:00.623Z,99580.63
2023-01-13T02:48:31.129Z,99565.94
2023-01-13T02:51:02.334Z,99566.94
2023-01-13T02:53:35.171Z,99572.28
2023-01-13T02:56:04.827Z,99560.03
2023-01-13T02:58:33.829Z,99576.28
2023-01-13T03:01:03.321Z,99576.56
2023-01-13T03:03:33.060Z,99585.41
2023-01-13T03:06:15.398Z,99580.91
2023-01-13T03:08:46.680Z,99583.53
2023-01-13T03:11:16.068Z,99584.34
2023-01-13T03:14:10.824Z,99579.31
2023-01-13T03:17:01.854Z,99572.38
2023-01-13T03:19:36.685Z,99573.78
2023-01-13T03:22:13.580Z,99564.91
2023-01-13T03:24:44.455Z,99583.91
2023-01-13T03:27:15.370Z,99584.72
2023-01-13T03:29:47.762Z,99580.47
2023-01-13T03:32:21.637Z,99591.53
2023-01-13T03:34:52.322Z,99591.34
2023-01-13T03:37:22.577Z,99578.31
2023-01-13T03:39:54.187Z,99596.59
2023-01-13T03:42:24.468Z,99593.22
2023-01-13T03:44:55.893Z,99589.66
2023-01-13T03:47:28.920Z,99588.47
2023-01-13T03:49:57.193Z,99584.28
2023-01-13T03:52:27.349Z,99592.34
2023-01-13T03:54:59.132Z,99610.34
2023-01-13T03:57:31.303Z,99623.53
2023-01-13T04:00:02.151Z,99616.44
2023-01-13T04:02:48.399Z,99624.91
2023-01-13T04:05:16.764Z,99623.78
2023-01-13T04:07:50.855Z,99622.06
2023-01-13T04:10:21.609Z,99635.72
2023-01-13T04:13:02.487Z,99646.09
2023-01-13T04:15:32.963Z,99648.75
2023-01-13T04:18:11.485Z,99656.38
2023-01-13T04:20:40.659Z,99665.19
2023-01-13T04:23:08.836Z,99670.28
2023-01-13T04:25:37.269Z,99672.19
2023-01-13T04:28:05.535Z,99674.91
2023-01-13T04:30:33.452Z,99679.38
2023-01-13T04:33:01.371Z,99681.00
2023-01-13T04:35:30.779Z,99686.38
2023-01-13T04:37:58.723Z,99689.31
2023-01-13T04:40:26.561Z,99690.00
2023-01-13T04:42:54.420Z,99682.69
2023-01-13T04:45:22.293Z,99681.75
2023-01-13T04:47:50.174Z,99686.88
2023-01-13T04:50:19.814Z,99691.19
2023-01-13T04:52:49.581Z,99682.88
2023-01-13T04:55:18.309Z,99694.22
2023-01-13T04:57:46.332Z,99697.56
2023-01-13T05:00:16.273Z,99694.06
2023-01-13T05:02:44.225Z,99697.47
2023-01-13T05:05:12.193Z,99699.38
2023-01-13T05:07:40.122Z,99696.09
2023-01-13T05:10:10.943Z,99703.00
2023-01-13T05:12:56.364Z,99685.63
2023-01-13T05:15:50.111Z,99684.06
2023-01-13T05:18:19.063Z,99678.34
2023-01-13T05:20:47.084Z,99669.03
2023-01-13T05:23:32.393Z,99672.63
2023-01-13T05:26:01.824Z,99673.31
2023-01-13T05:28:32.634Z,99676.66
2023-01-13T05:31:01.095Z,99673.44
2023-01-13T05:33:29.006Z,99678.50
2023-01-13T05:35:56.883Z,99664.06
2023-01-13T05:38:24.717Z,99669.53
2023-01-13T05:41:10.125Z,99681.50
2023-01-13T05:43:39.714Z,99676.25
2023-01-13T05:46:10.128Z,99673.72
2023-01-13T05:48:39.852Z,99680.75
2023-01-13T05:51:17.887Z,99674.78
2023-01-13T05:53:45.865Z,99687.97
2023-01-13T05:56:14.848Z,99684.38
2023-01-13T05:58:44.688Z,99685.22
2023-01-13T06:01:12.635Z,99678.47
2023-01-13T06:03:40.596Z,99673.22
2023-01-13T06:06:09.064Z,99679.53
2023-01-13T06:08:39.599Z,99685.72
2023-01-13T06:11:07.810Z,99680.50
2023-01-13T06:13:35.688Z,99688.19
2023-01-13T06:16:05.367Z,99685.59
2023-01-13T06:18:33.327Z,99677.28
2023-01-13T06:21:01.194Z,99676.34
2023-01-13T06:23:29.565Z,99680.88
2023-01-13T06:26:01.907Z,99689.50
2023-01-13T06:28:29.793Z,99696.63
2023-01-13T06:31:00.909Z,99693.78
2023-01-13T06:33:33.099Z,99696.53
2023-01-13T06:36:03.317Z,99699.25
2023-01-13T06:38:35.256Z,99698.75
2023-01-13T06:41:03.432Z,99701.44
2023-01-13T06:43:30.390Z,99707.34
2023-01-13T06:45:58.177Z,99700.28
2023-01-13T06:48:28.982Z,99690.94
2023-01-13T06:50:58.619Z,99702.13
2023-01-13T06:53:26.498Z,99690.28
2023-01-13T06:55:54.383Z,99701.38
2023-01-13T06:58:22.221Z,99680.78
2023-01-13T07:00:51.408Z,99687.69
2023-01-13T07:03:20.060Z,99682.63
2023-01-13T07:05:53.465Z,99692.97
2023-01-13T07:08:23.068Z,99696.41
2023-01-13T07:10:51.190Z,99693.97
2023-01-13T07:13:44.942Z,99694.81
2023-01-13T07:16:12.839Z,99696.72
2023-01-13T07:18:40.921Z,99699.97
2023-01-13T07:21:10.565Z,99701.84
2023-01-13T07:23:41.153Z,99695.00
2023-01-13T07:26:09.745Z,99700.31
2023-01-13T07:28:38.273Z,99691.78
2023-01-13T07:31:06.834Z,99701.25
2023-01-13T07:33:34.746Z,99704.53
2023-01-13T07:36:04.092Z,99700.25
2023-01-13T07:38:32.954Z,99700.31
2023-01-13T07:41:23.879Z,99702.00
2023-01-13T07:43:51.802Z,99703.91
2023-01-13T07:46:20.090Z,99697.75
2023-01-13T07:48:48.674Z,99698.75
2023-01-13T07:51:16.695Z,99694.53
2023-01-13T07:53:44.648Z,99694.56
2023-01-13T07:56:13.909Z,99695.47
2023-01-13T07:58:41.749Z,99685.06
2023-01-13T08:01:10.330Z,99682.47
2023-01-13T08:03:38.352Z,99698.81
2023-01-13T08:06:06.614Z,99699.59
2023-01-13T08:08:34.636Z,99708.16
2023-01-13T08:11:03.006Z,99698.75
2023-01-13T08:13:32.595Z,99706.34
2023-01-13T08:16:02.721Z,99718.38
2023-01-13T08:18:32.070Z,99708.03
2023-01-13T08:21:02.999Z,99723.41
2023-01-13T08:23:30.920Z,99725.19
2023-01-13T08:26:01.458Z,99722.34
2023-01-13T08:28:29.313Z,99713.94
2023-01-13T08:31:01.971Z,99721.53
2023-01-13T08:33:30.523Z,99723.28
2023-01-13T08:35:58.445Z,99718.97
2023-01-13T08:38:26.766Z,99728.50
2023-01-13T08:40:54.642Z,99732.03
2023-01-13T08:43:22.520Z,99722.41
2023-01-13T08:45:57.420Z,99723.34
2023-01-13T08:48:28.547Z,99729.44
2023-01-13T08:51:02.892Z,99730.31
2023-01-13T08:53:30.993Z,99723.22
2023-01-13T08:55:58.866Z,99736.03
2023-01-13T08:58:26.741Z,99729.66
2023-01-13T09:00:54.698Z,99734.63
2023-01-13T09:03:22.657Z,99731.31
2023-01-13T09:05:51.970Z,99731.16
2023-01-13T09:08:20.294Z,99730.09
2023-01-13T09:10:48.320Z,99729.38
2023-01-13T09:13:15.724Z,99737.09
2023-01-13T09:15:46.244Z,99731.94
2023-01-13T09:18:14.613Z,99736.41
2023-01-13T09:20:42.507Z,99727.50
2023-01-13T09:23:11.859Z,99727.72
2023-01-13T09:25:40.065Z,99726.53
2023-01-13T09:28:08.864Z,99732.41
2023-01-13T09:30:37.993Z,99734.63
2023-01-13T09:33:23.383Z,99738.88
2023-01-13T09:35:51.346Z,99736.34
2023-01-13T09:38:20.593Z,99747.09
2023-01-13T09:40:49.655Z,99747.25
2023-01-13T09:43:38.855Z,99744.09
2023-01-13T09:46:34.096Z,99742.44
2023-01-13T09:49:03.683Z,99745.00
2023-01-13T09:51:35.174Z,99748.88
2023-01-13T09:54:07.817Z,99746.97
2023-01-13T09:56:35.696Z,99731.19
2023-01-13T09:59:03.484Z,99733.28
2023-01-13T10:01:35.633Z,99733.59
2023-01-13T10:04:05.842Z,99734.66
2023-01-13T10:06:36.661Z,99741.44
2023-01-13T10:09:06.285Z,99739.63
2023-01-13T10:11:56.341Z,99732.47
2023-01-13T10:14:27.617Z,99732.28
2023-01-13T10:17:07.674Z,99732.97
2023-01-13T10:19:39.928Z,99742.25
2023-01-13T10:22:29.208Z,99743.72
2023-01-13T10:25:18.335Z,99749.50
2023-01-13T10:27:49.299Z,99740.81
2023-01-13T10:30:23.365Z,99738.13
2023-01-13T10:32:54.034Z,99738.44
2023-01-13T10:35:56.326Z,99731.19
2023-01-13T10:38:26.595Z,99729.50
2023-01-13T10:40:58.119Z,99736.34
2023-01-13T10:43:26.459Z,99726.25
2023-01-13T10:45:59.887Z,99730.72
2023-01-13T10:48:36.525Z,99723.44
2023-01-13T10:51:19.890Z,99721.59
2023-01-13T10:53:52.229Z,99714.97
2023-01-13T10:56:22.795Z,99719.22
2023-01-13T10:58:50.758Z,99727.53
2023-01-13T11:01:26.760Z,99722.38
2023-01-13T11:03:55.766Z,99736.22
2023-01-13T11:06:26.056Z,99733.94
2023-01-13T11:08:58.011Z,99737.56
2023-01-13T11:11:33.182Z,99742.06
2023-01-13T11:14:21.713Z,99748.75
2023-01-13T11:16:54.052Z,99755.44
2023-01-13T11:19:23.869Z,99745.84
2023-01-13T11:21:55.843Z,99756.00
2023-01-13T11:24:29.878Z,99755.97
2023-01-13T11:27:03.308Z,99757.81
2023-01-13T11:29:37.799Z,99752.69
2023-01-13T11:32:11.900Z,99753.94
2023-01-13T11:34:41.783Z,99753.84
2023-01-13T11:37:13.935Z,99763.56
2023-01-13T11:39:50.232Z,99755.06
2023-01-13T11:42:24.354Z,99753.91
2023-01-13T11:45:02.168Z,99743.03
2023-01-13T11:47:30.803Z,99746.69
2023-01-13T11:49:58.797Z,99745.78
2023-01-13T11:52:34.371Z,99747.22
2023-01-13T11:55:11.406Z,99748.44
2023-01-13T11:58:00.515Z,99747.03
2023-01-13T12:00:34.481Z,99753.06
2023-01-13T12:03:22.993Z,99742.59
2023-01-13T12:06:02.917Z,99746.88
2023-01-13T12:08:47.567Z,99753.81
2023-01-13T12:11:19.020Z,99744.09
2023-01-13T12:14:08.498Z,99753.59
2023-01-13T12:16:38.777Z,99753.41
2023-01-13T12:19:33.997Z,99742.84
2023-01-13T12:22:11.213Z,99750.41
2023-01-13T12:24:44.410Z,99744.34
2023-01-13T12:27:16.701Z,99758.91
2023-01-13T12:29:47.175Z,99749.69
2023-01-13T12:32:20.922Z,99753.03
2023-01-13T12:35:09.511Z,99742.03
2023-01-13T12:37:42.831Z,99752.28
2023-01-13T12:40:23.315Z,99746.75
2023-01-13T12:43:13.859Z,99755.88
2023-01-13T12:45:43.243Z,99752.66
2023-01-13T12:48:49.067Z,99750.84
2023-01-13T12:51:23.532Z,99750.41
2023-01-13T12:53:51.896Z,99766.00
2023-01-13T12:56:44.396Z,99773.00
2023-01-13T12:59:51.568Z,99758.53
2023-01-13T13:02:29.609Z,99755.00
2023-01-13T13:04:58.839Z,99765.72
2023-01-13T13:07:34.810Z,99758.31
2023-01-13T13:10:04.450Z,99761.19
2023-01-13T13:13:13.442Z,99760.16
2023-01-13T13:15:41.595Z,99768.75
2023-01-13T13:18:28.459Z,99761.25
2023-01-13T13:21:04.192Z,99767.00
2023-01-13T13:23:49.060Z,99753.22
2023-01-13T13:26:22.021Z,99757.38
2023-01-13T13:28:58.126Z,99756.16
2023-01-13T13:31:36.320Z,99750.63
2023-01-13T13:34:16.815Z,99760.00
2023-01-13T13:37:11.003Z,99765.28
2023-01-13T13:39:59.763Z,99761.28
2023-01-13T13:42:49.482Z,99763.25
2023-01-13T13:45:39.107Z,99763.81
2023-01-13T13:48:22.041Z,99756.09
2023-01-13T13:50:56.558Z,99745.22
2023-01-13T13:53:27.330Z,99746.78
2023-01-13T13:55:59.483Z,99752.53
2023-01-13T13:58:28.859Z,99748.50
2023-01-13T14:00:57.627Z,99750.16
2023-01-13T14:03:27.723Z,99756.84
2023-01-13T14:05:59.397Z,99751.69
2023-01-13T14:08:28.957Z,99758.25
2023-01-13T14:10:57.153Z,99748.94
2023-01-13T14:13:26.771Z,99762.63
2023-01-13T14:15:58.203Z,99772.44
2023-01-13T14:18:27.370Z,99772.25
2023-01-13T14:21:00.463Z,99776.06
2023-01-13T14:23:29.656Z,99771.34
2023-01-13T14:26:03.222Z,99776.72
2023-01-13T14:28:33.329Z,99775.91
2023-01-13T14:31:01.420Z,99781.91
2023-01-13T14:33:35.339Z,99778.59
2023-01-13T14:36:14.591Z,99764.84
2023-01-13T14:38:43.684Z,99776.28
2023-01-13T14:41:25.504Z,99771.06
2023-01-13T14:43:57.284Z,99777.91
2023-01-13T14:46:25.623Z,99779.88
2023-01-13T14:48:55.246Z,99776.13
2023-01-13T14:51:26.874Z,99779.75
2023-01-13T14:53:55.392Z,99773.84
2023-01-13T14:56:40.539Z,99785.84
2023-01-13T14:59:37.624Z,99792.00
2023-01-13T15:02:47.229Z,99772.47
2023-01-13T15:05:33.347Z,99773.34
2023-01-13T15:08:06.254Z,99775.31
2023-01-13T15:10:38.057Z,99769.66
2023-01-13T15:13:07.591Z,99755.16
2023-01-13T15:15:37.709Z,99766.84
2023-01-13T15:18:11.706Z,99762.44
2023-01-13T15:20:40.348Z,99768.78
2023-01-13T15:23:09.938Z,99760.25
2023-01-13T15:25:39.838Z,99755.19
2023-01-13T15:28:08.427Z,99743.88
2023-01-13T15:30:36.328Z,99762.75
2023-01-13T15:33:04.361Z,99758.44
2023-01-13T15:35:32.296Z,99758.34
2023-01-13T15:38:00.158Z,99753.91
2023-01-13T15:40:33.046Z,99763.34
2023-01-13T15:43:18.385Z,99763.19
2023-01-13T15:46:04.685Z,99770.22
2023-01-13T15:48:32.977Z,99771.94
2023-01-13T15:51:01.846Z,99781.28
2023-01-13T15:53:30.829Z,99793.38
2023-01-13T15:56:00.211Z,99781.28
2023-01-13T15:58:29.570Z,99790.66
2023-01-13T16:00:57.597Z,99796.63
2023-01-13T16:03:25.552Z,99783.00
2023-01-13T16:05:53.431Z,99786.47
2023-01-13T16:08:23.091Z,99788.06
2023-01-13T16:10:51.057Z,99786.47
2023-01-13T16:13:20.278Z,99783.06
2023-01-13T16:15:50.050Z,99784.75
2023-01-13T16:18:19.578Z,99775.16
2023-01-13T16:20:47.875Z,99799.19
2023-01-13T16:23:15.788Z,99789.16
2023-01-13T16:25:47.735Z,99779.00
2023-01-13T16:28:22.100Z,99784.28
2023-01-13T16:30:50.088Z,99795.69
2023-01-13T16:33:18.245Z,99788.13
2023-01-13T16:36:10.957Z,99798.72
2023-01-13T16:38:34.767Z,99797.78
2023-01-13T16:41:02.913Z,99787.44
2023-01-13T16:43:32.375Z,99782.66
2023-01-13T16:46:01.373Z,99788.81
2023-01-13T16:48:29.349Z,99786.97
2023-01-13T16:50:57.210Z,99785.47
2023-01-13T16:53:25.278Z,99780.50
2023-01-13T16:55:53.311Z,99782.06
2023-01-13T16:58:21.898Z,99776.59
2023-01-13T17:00:52.071Z,99781.34
2023-01-13T17:03:21.078Z,99764.28
2023-01-13T17:05:49.026Z,99762.69
2023-01-13T17:08:18.295Z,99761.66
2023-01-13T17:10:46.741Z,99759.25
2023-01-13T17:13:16.969Z,99766.00
2023-01-13T17:15:45.426Z,99769.34
2023-01-13T17:18:14.707Z,99766.53
2023-01-13T17:20:42.562Z,99759.63
2023-01-13T17:23:10.453Z,99766.31
2023-01-13T17:25:38.351Z,99760.28
2023-01-13T17:28:06.266Z,99773.88
2023-01-13T17:30:34.151Z,99780.69
2023-01-13T17:33:02.032Z,99773.72
2023-01-13T17:35:31.235Z,99767.69
2023-01-13T17:37:59.147Z,99781.47
2023-01-13T17:40:27.040Z,99771.09
2023-01-13T17:42:54.929Z,99787.53
2023-01-13T17:45:22.779Z,99778.59
2023-01-13T17:47:50.615Z,99800.31
2023-01-13T17:50:19.798Z,99815.69
2023-01-13T17:52:49.100Z,99808.69
2023-01-13T17:55:19.361Z,99809.53
2023-01-13T17:57:47.362Z,99820.09
2023-01-13T18:00:16.392Z,99812.16
2023-01-13T18:02:44.321Z,99835.66
2023-01-13T18:05:12.693Z,99828.72
2023-01-13T18:07:40.562Z,99818.50
2023-01-13T18:10:11.778Z,99817.09
2023-01-13T18:12:39.707Z,99836.06
2023-01-13T18:15:08.747Z,99835.50
2023-01-13T18:17:36.688Z,99835.13
2023-01-13T18:20:22.271Z,99837.22
2023-01-13T18:23:07.503Z,99828.97
2023-01-13T18:25:54.060Z,99836.84
2023-01-13T18:28:21.904Z,99824.03
2023-01-13T18:30:49.844Z,99807.81
2023-01-13T18:33:17.830Z,99798.31
2023-01-13T18:35:45.695Z,99797.44
2023-01-13T18:38:14.586Z,99782.88
2023-01-13T18:40:45.535Z,99786.16
2023-01-13T18:43:12.408Z,99795.47
2023-01-13T18:45:40.294Z,99801.50
2023-01-13T18:48:08.817Z,99816.72
2023-01-13T18:50:36.851Z,99800.22
2023-01-13T18:53:04.912Z,99809.75
2023-01-13T18:55:32.746Z,99811.34
2023-01-13T18:58:02.254Z,99812.03
2023-01-13T19:00:36.283Z,99811.22
2023-01-13T19:05:34.776Z,99835.19
2023-01-13T19:08:02.921Z,99819.75
2023-01-13T19:10:32.418Z,99828.19
2023-01-13T19:13:02.304Z,99837.63
2023-01-13T19:15:30.233Z,99842.63
2023-01-13T19:17:58.247Z,99849.44
2023-01-13T19:20:26.209Z,99837.38
2023-01-13T19:22:54.945Z,99839.81
2023-01-13T19:25:22.919Z,99850.88
2023-01-13T19:27:50.800Z,99848.41
2023-01-13T19:30:20.439Z,99878.56
2023-01-13T19:32:48.271Z,99862.06
2023-01-13T19:35:18.180Z,99880.16
2023-01-13T19:37:46.087Z,99866.38
2023-01-13T19:40:14.666Z,99882.59
2023-01-13T19:43:01.405Z,99877.53
2023-01-13T19:45:33.654Z,99878.44
2023-01-13T19:48:05.538Z,99882.84
2023-01-13T19:50:37.391Z,99872.50
2023-01-13T19:53:05.399Z,99912.16
2023-01-13T19:55:33.313Z,99888.91
2023-01-13T19:58:01.274Z,99881.16
2023-01-13T20:00:30.540Z,99887.88
2023-01-13T20:03:03.170Z,99918.88
2023-01-13T20:05:31.189Z,99910.25
2023-01-13T20:07:59.032Z,99909.28
2023-01-13T20:10:26.900Z,99922.94
2023-01-13T20:12:54.751Z,99911.59
2023-01-13T20:15:22.670Z,99932.09
2023-01-13T20:17:52.044Z,99926.91
2023-01-13T20:20:20.540Z,99934.44
2023-01-13T20:22:49.588Z,99959.69
2023-01-13T20:25:18.664Z,99955.78
2023-01-13T20:27:47.265Z,99940.31
2023-01-13T20:30:15.985Z,99959.88
2023-01-13T20:32:44.559Z,99954.66
2023-01-13T20:35:13.971Z,99950.22
2023-01-13T20:37:43.316Z,99968.31
2023-01-13T20:40:14.843Z,99968.28
2023-01-13T20:42:44.801Z,99970.88
2023-01-13T20:45:17.040Z,100004.56
2023-01-13T20:47:46.229Z,99974.38
2023-01-13T20:50:16.358Z,99983.97
2023-01-13T20:52:44.826Z,99980.53
2023-01-13T20:55:12.692Z,99981.47
2023-01-13T20:57:40.852Z,99983.97
2023-01-13T21:00:10.254Z,99979.41
2023-01-13T21:02:39.952Z,99981.22
2023-01-13T21:05:08.592Z,99981.22
2023-01-13T21:07:37.916Z,99984.66
2023-01-13T21:10:06.641Z,99983.69
2023-01-13T21:12:51.904Z,100013.81
2023-01-13T21:15:21.585Z,100004.34
2023-01-13T21:18:08.369Z,100001.78
2023-01-13T21:20:37.385Z,100044.72
2023-01-13T21:23:06.821Z,100009.38
2023-01-13T21:25:37.004Z,100038.75
2023-01-13T21:28:07.530Z,100039.56
2023-01-13T21:30:36.172Z,100034.41
2023-01-13T21:33:06.096Z,100057.47
2023-01-13T21:35:34.006Z,100030.88
2023-01-13T21:38:01.850Z,100073.16
2023-01-13T21:40:31.127Z,100056.91
2023-01-13T21:43:16.370Z,100080.13
2023-01-13T21:46:01.474Z,100083.63
2023-01-13T21:48:29.387Z,100089.06
2023-01-13T21:51:00.658Z,100089.84
2023-01-13T21:53:28.761Z,100075.19
2023-01-13T21:55:57.958Z,100073.66
2023-01-13T21:58:25.824Z,100073.66
2023-01-13T22:00:54.078Z,100078.91
2023-01-13T22:03:22.291Z,100072.19
2023-01-13T22:05:54.581Z,100065.16
2023-01-13T22:08:22.519Z,100084.16
2023-01-13T22:10:58.476Z,100086.00
2023-01-13T22:14:00.824Z,100095.34
2023-01-13T22:16:29.066Z,100085.25
2023-01-13T22:18:56.936Z,100086.31
2023-01-13T22:21:24.901Z,100085.44
2023-01-13T22:23:52.850Z,100086.25
2023-01-13T22:26:20.714Z,100099.31
2023-01-13T22:28:50.044Z,100102.69
2023-01-13T22:31:19.100Z,100082.03
2023-01-13T22:33:49.915Z,100088.16
2023-01-13T22:36:17.751Z,100100.28
2023-01-13T22:38:45.625Z,100101.00
2023-01-13T22:41:13.867Z,100104.31
2023-01-13T22:43:41.738Z,100109.47
2023-01-13T22:46:12.321Z,100128.22
2023-01-13T22:48:41.016Z,100131.63
2023-01-13T22:51:10.169Z,100123.16
2023-01-13T22:53:39.042Z,100135.50
2023-01-13T22:56:07.662Z,100144.31
2023-01-13T22:58:35.579Z,100131.63
2023-01-13T23:01:13.041Z,100150.66
2023-01-13T23:03:41.012Z,100119.03
2023-01-13T23:06:09.425Z,100136.25
2023-01-13T23:08:37.701Z,100155.22
2023-01-13T23:11:07.593Z,100142.19
2023-01-13T23:13:35.547Z,100138.75
2023-01-13T23:16:04.480Z,100135.41
2023-01-13T23:18:33.823Z,100159.50
2023-01-13T23:21:04.937Z,100144.06
2023-01-13T23:23:33.387Z,100148.38
2023-01-13T23:26:01.751Z,100155.22
2023-01-13T23:28:30.941Z,100139.72
2023-01-13T23:30:58.815Z,100150.03
2023-01-13T23:33:26.957Z,100155.22
2023-01-13T23:35:59.952Z,100147.53
2023-01-13T23:38:27.845Z,100164.66
2023-01-13T23:40:55.755Z,100180.25
2023-01-13T23:43:24.127Z,100172.44
2023-01-13T23:45:51.985Z,100187.03
2023-01-13T23:48:19.998Z,100179.28
2023-01-13T23:50:59.109Z,100191.34
2023-01-13T23:53:33.177Z,100179.28
2023-01-13T23:56:01.734Z,100194.78
2023-01-13T23:58:30.739Z,100199.94
